Time;durP1;ratioP1;P1;durP2;ratioP2;P2;SDS_P1;SDS_P2;PMS_P1;PMS_P2;Temp;Humidity;BMP_temperature;BMP_pressure;BME280_temperature;BME280_humidity;BME280_pressure;Samples;Min_cycle;Max_cycle;Signal;HPM_P1;HPM_P2
2022/04/28 00:02:19;;;;;;;;;;;6.40;99.90;;;;;;5026363;28;19941;-79
2022/04/28 00:04:45;;;;;;;;;;;6.40;99.90;;;;;;5033680;28;20556;-79
2022/04/28 00:07:12;;;;;;;;;;;6.40;99.90;;;;;;5034317;28;19928;-79
2022/04/28 00:09:38;;;;;;;;;;;6.40;99.90;;;;;;5033429;28;19925;-79
2022/04/28 00:12:05;;;;;;;;;;;6.40;99.90;;;;;;5033400;28;19924;-79
2022/04/28 00:14:32;;;;;;;;;;;6.40;99.90;;;;;;5051386;28;19933;-78
2022/04/28 00:16:59;;;;;;;;;;;6.40;99.90;;;;;;5033601;28;19932;-78
2022/04/28 00:19:25;;;;;;;;;;;6.40;99.90;;;;;;5032140;28;19925;-79
2022/04/28 00:21:52;;;;;;;;;;;6.40;99.90;;;;;;5036432;28;19936;-79
2022/04/28 00:24:18;;;;;;;;;;;6.50;99.90;;;;;;5045687;28;19925;-79
2022/04/28 00:26:45;;;;;;;;;;;6.60;99.90;;;;;;5038206;28;19932;-79
2022/04/28 00:29:11;;;;;;;;;;;6.50;99.90;;;;;;5036357;28;20012;-79
2022/04/28 00:31:38;;;;;;;;;;;6.60;99.90;;;;;;5021599;28;19932;-79
2022/04/28 00:34:04;;;;;;;;;;;6.60;99.90;;;;;;5034409;28;19928;-79
2022/04/28 00:36:31;;;;;;;;;;;6.60;99.90;;;;;;5054034;28;19925;-80
2022/04/28 00:38:57;;;;;;;;;;;6.60;99.90;;;;;;5029951;28;19939;-77
2022/04/28 00:41:24;;;;;;;;;;;6.70;99.90;;;;;;5054371;28;19925;-77
2022/04/28 00:43:51;;;;;;;;;;;6.70;99.90;;;;;;5034199;28;20035;-78
2022/04/28 00:46:17;;;;;;;;;;;6.70;99.90;;;;;;5046692;28;19925;-79
2022/04/28 00:51:28;;;;;;;;;;;6.80;99.90;;;;;;5026650;28;20376;-78
2022/04/28 00:53:55;;;;;;;;;;;6.80;99.90;;;;;;5027074;28;19931;-78
2022/04/28 00:56:21;;;;;;;;;;;6.80;99.90;;;;;;5023348;28;19925;-78
2022/04/28 00:58:48;;;;;;;;;;;6.80;99.90;;;;;;5019754;28;20340;-79
2022/04/28 01:01:14;;;;;;;;;;;6.90;99.90;;;;;;5051833;28;19928;-78
2022/04/28 01:03:41;;;;;;;;;;;6.90;99.90;;;;;;5036766;28;19925;-78
2022/04/28 01:06:08;;;;;;;;;;;7.00;99.90;;;;;;5044516;28;19933;-79
2022/04/28 01:08:34;;;;;;;;;;;7.00;99.90;;;;;;5028060;28;19931;-80
2022/04/28 01:11:01;;;;;;;;;;;7.00;99.90;;;;;;5024113;28;19939;-77
2022/04/28 01:13:28;;;;;;;;;;;7.00;99.90;;;;;;5028886;28;19925;-78
2022/04/28 01:15:54;;;;;;;;;;;6.90;99.90;;;;;;5025411;28;19956;-78
2022/04/28 01:18:21;;;;;;;;;;;7.00;99.90;;;;;;5031552;28;19925;-79
2022/04/28 01:20:47;;;;;;;;;;;7.00;99.90;;;;;;5019332;28;19925;-79
2022/04/28 01:23:14;;;;;;;;;;;7.00;99.90;;;;;;5033041;28;19925;-78
2022/04/28 01:25:40;;;;;;;;;;;7.00;99.90;;;;;;5040570;28;19932;-79
2022/04/28 01:28:07;;;;;;;;;;;7.00;99.90;;;;;;5026818;28;19925;-77
2022/04/28 01:30:36;;;;;;;;;;;7.00;99.90;;;;;;5053399;28;19931;-82
2022/04/28 01:33:02;;;;;;;;;;;7.00;99.90;;;;;;5036582;28;19925;-79
2022/04/28 01:35:29;;;;;;;;;;;7.00;99.90;;;;;;5031009;28;19925;-78
2022/04/28 01:37:55;;;;;;;;;;;7.00;99.90;;;;;;5040015;28;20336;-78
2022/04/28 01:40:22;;;;;;;;;;;7.00;99.90;;;;;;5055653;28;19932;-81
2022/04/28 01:42:48;;;;;;;;;;;7.10;99.90;;;;;;5035435;28;19929;-78
2022/04/28 01:45:15;;;;;;;;;;;7.10;99.90;;;;;;5026944;28;19936;-78
2022/04/28 01:47:41;;;;;;;;;;;7.10;99.90;;;;;;5033032;28;19924;-78
2022/04/28 01:50:08;;;;;;;;;;;7.20;99.90;;;;;;5027206;28;19929;-78
2022/04/28 01:55:18;;;;;;;;;;;7.20;99.90;;;;;;5031624;28;20368;-77
2022/04/28 01:57:46;;;;;;;;;;;7.20;99.90;;;;;;5044108;28;19925;-79
2022/04/28 02:00:12;;;;;;;;;;;7.30;99.90;;;;;;5026532;28;19977;-79
2022/04/28 02:02:39;;;;;;;;;;;7.30;99.90;;;;;;5032593;28;20292;-79
2022/04/28 02:05:05;;;;;;;;;;;7.30;99.90;;;;;;5036200;28;20364;-77
2022/04/28 02:07:32;;;;;;;;;;;7.30;99.90;;;;;;5053732;28;19932;-79
2022/04/28 02:09:58;;;;;;;;;;;7.40;99.90;;;;;;5029145;28;19924;-78
2022/04/28 02:12:25;;;;;;;;;;;7.40;99.90;;;;;;5030655;28;19924;-79
2022/04/28 02:14:52;;;;;;;;;;;7.40;99.90;;;;;;5034538;28;19928;-79
2022/04/28 02:17:18;;;;;;;;;;;7.40;99.90;;;;;;5022367;28;19948;-79
2022/04/28 02:19:45;;;;;;;;;;;7.50;99.90;;;;;;5020112;28;19925;-78
2022/04/28 02:22:11;;;;;;;;;;;7.50;99.90;;;;;;5047165;28;19925;-79
2022/04/28 02:24:38;;;;;;;;;;;7.50;99.90;;;;;;5022219;28;20406;-79
2022/04/28 02:27:04;;;;;;;;;;;7.50;99.90;;;;;;5046622;28;19932;-80
2022/04/28 02:29:31;;;;;;;;;;;7.50;99.90;;;;;;5051602;28;19932;-79
2022/04/28 02:31:57;;;;;;;;;;;7.50;99.90;;;;;;5038501;28;19925;-79
2022/04/28 02:34:24;;;;;;;;;;;7.50;99.90;;;;;;5038096;28;19929;-78
2022/04/28 02:36:50;;;;;;;;;;;7.50;99.90;;;;;;5021085;28;19925;-79
2022/04/28 02:39:18;;;;;;;;;;;7.50;99.90;;;;;;5030044;28;19978;-79
2022/04/28 02:41:45;;;;;;;;;;;7.50;99.90;;;;;;5042415;28;20037;-78
2022/04/28 02:44:11;;;;;;;;;;;7.50;99.90;;;;;;5048103;28;19936;-79
2022/04/28 02:46:38;;;;;;;;;;;7.40;99.90;;;;;;5029199;28;20024;-82
2022/04/28 02:49:05;;;;;;;;;;;7.50;99.90;;;;;;5034075;28;20023;-79
2022/04/28 02:51:31;;;;;;;;;;;7.50;99.90;;;;;;5043712;28;19932;-79
2022/04/28 02:53:58;;;;;;;;;;;7.50;99.90;;;;;;5034770;28;19928;-78
2022/04/28 02:56:25;;;;;;;;;;;7.50;99.90;;;;;;5034876;28;19952;-78
2022/04/28 02:58:52;;;;;;;;;;;7.50;99.90;;;;;;5021047;28;19925;-80
2022/04/28 03:01:18;;;;;;;;;;;7.50;99.90;;;;;;5052687;28;19995;-79
2022/04/28 03:03:45;;;;;;;;;;;7.50;99.90;;;;;;5033866;28;19925;-79
2022/04/28 03:11:41;;;;;;;;;;;7.40;99.90;;;;;;5043841;28;19925;-81
2022/04/28 03:14:07;;;;;;;;;;;7.40;99.90;;;;;;5052068;28;20338;-78
2022/04/28 03:16:35;;;;;;;;;;;7.40;99.90;;;;;;5028447;28;19929;-78
2022/04/28 03:19:01;;;;;;;;;;;7.40;99.90;;;;;;5046961;28;19940;-79
2022/04/28 03:21:28;;;;;;;;;;;7.40;99.90;;;;;;5029820;28;19925;-78
2022/04/28 03:23:55;;;;;;;;;;;7.40;99.90;;;;;;5051323;28;20333;-79
2022/04/28 03:26:21;;;;;;;;;;;7.30;99.90;;;;;;5027961;28;19947;-79
2022/04/28 03:28:48;;;;;;;;;;;7.30;99.90;;;;;;5029038;28;19925;-80
2022/04/28 03:31:14;;;;;;;;;;;7.30;99.90;;;;;;5052129;28;20383;-80
2022/04/28 03:33:41;;;;;;;;;;;7.30;99.90;;;;;;5047571;28;19925;-81
2022/04/28 03:36:50;;;;;;;;;;;7.20;99.90;;;;;;5034378;28;19964;-79
2022/04/28 03:38:54;;;;;;;;;;;7.20;99.90;;;;;;5032448;28;20391;-79
2022/04/28 03:41:21;;;;;;;;;;;7.20;99.90;;;;;;5025713;28;19929;-79
2022/04/28 03:43:48;;;;;;;;;;;7.10;99.90;;;;;;5033392;28;19925;-79
2022/04/28 03:46:15;;;;;;;;;;;7.10;99.90;;;;;;5021462;28;20390;-78
2022/04/28 03:48:41;;;;;;;;;;;7.10;99.90;;;;;;5025470;28;19925;-83
2022/04/28 03:51:08;;;;;;;;;;;7.10;99.90;;;;;;5017564;28;19929;-78
2022/04/28 03:53:34;;;;;;;;;;;7.10;99.90;;;;;;5028769;28;19979;-79
2022/04/28 03:56:01;;;;;;;;;;;7.10;99.90;;;;;;5021556;28;20825;-79
2022/04/28 03:58:27;;;;;;;;;;;7.10;99.90;;;;;;5034134;28;19924;-79
2022/04/28 04:00:54;;;;;;;;;;;7.10;99.90;;;;;;5050856;28;19928;-79
2022/04/28 04:03:20;;;;;;;;;;;7.10;99.90;;;;;;5029664;28;19925;-79
2022/04/28 04:05:47;;;;;;;;;;;7.10;99.90;;;;;;5045790;28;19924;-79
2022/04/28 04:08:14;;;;;;;;;;;7.10;99.90;;;;;;5050048;28;19929;-79
2022/04/28 04:10:40;;;;;;;;;;;7.10;99.90;;;;;;5031928;28;19925;-78
2022/04/28 04:13:07;;;;;;;;;;;7.10;99.90;;;;;;5018685;28;19929;-78
2022/04/28 04:15:33;;;;;;;;;;;7.10;99.90;;;;;;5031215;28;19928;-78
2022/04/28 04:18:00;;;;;;;;;;;7.20;99.90;;;;;;5045837;28;19948;-78
2022/04/28 04:20:27;;;;;;;;;;;7.20;99.90;;;;;;5033570;28;19929;-78
2022/04/28 04:22:53;;;;;;;;;;;7.20;99.90;;;;;;5033538;28;19925;-79
2022/04/28 04:25:20;;;;;;;;;;;7.20;99.90;;;;;;5033926;28;20004;-78
2022/04/28 04:27:46;;;;;;;;;;;7.20;99.90;;;;;;5044624;28;19925;-79
2022/04/28 04:32:57;;;;;;;;;;;7.20;99.90;;;;;;5024423;28;19956;-78
2022/04/28 04:35:24;;;;;;;;;;;7.20;99.90;;;;;;5041327;28;19936;-78
2022/04/28 04:37:51;;;;;;;;;;;7.20;99.90;;;;;;5050743;28;20449;-78
2022/04/28 04:40:17;;;;;;;;;;;7.20;99.90;;;;;;5026748;28;19925;-78
2022/04/28 04:42:44;;;;;;;;;;;7.20;99.90;;;;;;5042330;28;19976;-82
2022/04/28 04:45:10;;;;;;;;;;;7.30;99.90;;;;;;5033766;28;19929;-77
2022/04/28 04:47:37;;;;;;;;;;;7.30;99.90;;;;;;5024081;28;19925;-78
2022/04/28 04:50:03;;;;;;;;;;;7.30;99.90;;;;;;5031551;28;19932;-78
2022/04/28 04:52:30;;;;;;;;;;;7.40;99.90;;;;;;5028217;28;19925;-79
2022/04/28 04:54:57;;;;;;;;;;;7.50;99.90;;;;;;5049111;28;19960;-79
2022/04/28 04:57:24;;;;;;;;;;;7.50;99.90;;;;;;5031310;28;19925;-78
2022/04/28 04:59:50;;;;;;;;;;;7.70;99.90;;;;;;5045841;28;19925;-79
2022/04/28 05:02:17;;;;;;;;;;;7.70;99.90;;;;;;5021022;28;19931;-78
2022/04/28 05:04:43;;;;;;;;;;;7.70;99.90;;;;;;5033890;28;20375;-78
2022/04/28 05:07:10;;;;;;;;;;;7.70;99.90;;;;;;5027965;28;20682;-78
2022/04/28 05:09:37;;;;;;;;;;;7.80;99.90;;;;;;5033019;28;20291;-79
2022/04/28 05:12:03;;;;;;;;;;;7.80;99.90;;;;;;5032491;28;19924;-78
2022/04/28 05:14:30;;;;;;;;;;;7.90;99.90;;;;;;5025316;28;19929;-79
2022/04/28 05:16:57;;;;;;;;;;;8.00;99.90;;;;;;5029828;28;20375;-79
2022/04/28 05:19:24;;;;;;;;;;;7.90;99.90;;;;;;5049769;28;20015;-77
2022/04/28 05:21:50;;;;;;;;;;;8.00;99.90;;;;;;5025527;28;19948;-79
2022/04/28 05:24:17;;;;;;;;;;;8.00;99.90;;;;;;5034765;28;19928;-80
2022/04/28 05:26:44;;;;;;;;;;;8.10;99.90;;;;;;5048398;28;19925;-81
2022/04/28 05:29:10;;;;;;;;;;;8.10;99.90;;;;;;5036243;28;19928;-79
2022/04/28 05:31:37;;;;;;;;;;;8.00;99.90;;;;;;5049865;28;19925;-79
2022/04/28 05:34:03;;;;;;;;;;;8.00;99.90;;;;;;5035784;28;19932;-80
2022/04/28 05:36:30;;;;;;;;;;;8.00;99.90;;;;;;5035268;28;19924;-79
2022/04/28 05:38:56;;;;;;;;;;;8.00;99.90;;;;;;5028689;28;20299;-79
2022/04/28 05:41:23;;;;;;;;;;;8.20;99.90;;;;;;5053888;28;20249;-79
2022/04/28 05:46:34;;;;;;;;;;;8.60;99.90;;;;;;5036350;28;20317;-79
2022/04/28 05:49:01;;;;;;;;;;;8.60;99.90;;;;;;5031606;28;20299;-79
2022/04/28 05:51:27;;;;;;;;;;;8.70;99.90;;;;;;5025482;28;19933;-80
2022/04/28 05:53:54;;;;;;;;;;;8.70;99.90;;;;;;5034978;28;19925;-80
2022/04/28 05:56:20;;;;;;;;;;;8.80;99.90;;;;;;5034106;28;19932;-80
2022/04/28 05:58:47;;;;;;;;;;;8.90;99.90;;;;;;5052810;28;20370;-79
2022/04/28 06:01:13;;;;;;;;;;;9.10;99.90;;;;;;5031735;28;20375;-82
2022/04/28 06:03:41;;;;;;;;;;;9.30;99.90;;;;;;5031471;28;19936;-80
2022/04/28 06:06:07;;;;;;;;;;;9.50;99.90;;;;;;5026990;28;19932;-80
2022/04/28 06:08:34;;;;;;;;;;;9.60;99.90;;;;;;5036193;28;20024;-82
2022/04/28 06:11:01;;;;;;;;;;;9.90;99.90;;;;;;5034896;28;19932;-80
2022/04/28 06:13:27;;;;;;;;;;;10.10;99.90;;;;;;5034382;28;19936;-80
2022/04/28 06:15:54;;;;;;;;;;;10.20;99.90;;;;;;5034516;28;19936;-82
2022/04/28 06:18:21;;;;;;;;;;;10.30;99.90;;;;;;5034995;28;19929;-81
2022/04/28 06:20:47;;;;;;;;;;;10.40;99.90;;;;;;5042056;28;20338;-80
2022/04/28 06:23:14;;;;;;;;;;;10.60;99.90;;;;;;5032972;28;20475;-82
2022/04/28 06:25:40;;;;;;;;;;;10.60;99.90;;;;;;5046611;28;20390;-81
2022/04/28 06:28:07;;;;;;;;;;;10.70;99.90;;;;;;5035206;28;19924;-80
2022/04/28 06:30:33;;;;;;;;;;;10.70;99.90;;;;;;5054566;28;20388;-83
2022/04/28 06:33:00;;;;;;;;;;;10.90;99.90;;;;;;5030448;28;19925;-82
2022/04/28 06:35:27;;;;;;;;;;;11.00;99.90;;;;;;5040751;28;19924;-79
2022/04/28 06:37:54;;;;;;;;;;;11.00;99.90;;;;;;5035080;28;19929;-87
2022/04/28 06:40:21;;;;;;;;;;;11.00;99.90;;;;;;5036063;28;19932;-82
2022/04/28 06:42:50;;;;;;;;;;;11.00;99.90;;;;;;5038417;28;20368;-80
2022/04/28 06:45:16;;;;;;;;;;;10.80;99.90;;;;;;5039345;28;19933;-81
2022/04/28 06:47:43;;;;;;;;;;;10.70;99.90;;;;;;5027013;28;19983;-80
2022/04/28 06:50:09;;;;;;;;;;;10.70;99.90;;;;;;5032339;28;19932;-81
2022/04/28 06:52:36;;;;;;;;;;;10.60;99.90;;;;;;5048509;28;19929;-81
2022/04/28 06:55:03;;;;;;;;;;;10.70;99.90;;;;;;5034042;28;19925;-81
2022/04/28 06:57:29;;;;;;;;;;;10.80;99.90;;;;;;5032412;28;19983;-81
2022/04/28 06:59:56;;;;;;;;;;;10.90;99.90;;;;;;5033616;28;19936;-86
2022/04/28 07:02:22;;;;;;;;;;;11.00;99.90;;;;;;5034485;28;19932;-81
2022/04/28 07:04:49;;;;;;;;;;;11.30;99.90;;;;;;5036499;28;19926;-81
2022/04/28 07:07:16;;;;;;;;;;;11.40;99.90;;;;;;5054053;28;20510;-81
2022/04/28 07:09:42;;;;;;;;;;;11.60;99.90;;;;;;5039711;28;19940;-81
2022/04/28 07:12:09;;;;;;;;;;;11.80;99.90;;;;;;5029533;28;19935;-80
2022/04/28 07:14:35;;;;;;;;;;;12.00;99.90;;;;;;5048236;28;19932;-82
2022/04/28 07:17:02;;;;;;;;;;;12.00;99.90;;;;;;5033188;28;19932;-81
2022/04/28 07:19:28;;;;;;;;;;;12.10;99.90;;;;;;5037165;28;19931;-82
2022/04/28 07:21:55;;;;;;;;;;;12.10;99.90;;;;;;5034084;28;19928;-80
2022/04/28 07:24:21;;;;;;;;;;;12.20;99.90;;;;;;5039729;28;19925;-82
2022/04/28 07:26:48;;;;;;;;;;;12.40;99.90;;;;;;5030425;28;19933;-80
2022/04/28 07:29:14;;;;;;;;;;;12.60;99.90;;;;;;5036351;28;19924;-81
2022/04/28 07:31:41;;;;;;;;;;;12.60;99.90;;;;;;5051149;28;19932;-81
2022/04/28 07:34:08;;;;;;;;;;;12.70;99.90;;;;;;5031058;28;19932;-82
2022/04/28 07:36:34;;;;;;;;;;;12.80;99.90;;;;;;5057957;28;19931;-81
2022/04/28 07:39:01;;;;;;;;;;;12.80;99.90;;;;;;5033189;28;20016;-82
2022/04/28 07:41:28;;;;;;;;;;;12.60;99.30;;;;;;5028428;28;20356;-82
2022/04/28 07:43:55;;;;;;;;;;;12.40;99.10;;;;;;5042802;28;19955;-82
2022/04/28 07:46:21;;;;;;;;;;;12.30;99.00;;;;;;5034398;28;19929;-82
2022/04/28 07:48:48;;;;;;;;;;;12.20;99.50;;;;;;5030457;28;19925;-82
2022/04/28 07:51:15;;;;;;;;;;;12.20;99.90;;;;;;5017836;28;19925;-81
2022/04/28 07:53:41;;;;;;;;;;;12.10;99.60;;;;;;5026482;28;19924;-81
2022/04/28 07:56:15;;;;;;;;;;;12.00;99.90;;;;;;5026754;28;19925;-82
2022/04/28 07:58:41;;;;;;;;;;;11.90;99.70;;;;;;5037302;28;20435;-82
2022/04/28 08:01:08;;;;;;;;;;;11.80;99.70;;;;;;5040037;28;20076;-82
2022/04/28 08:03:35;;;;;;;;;;;11.60;99.90;;;;;;5039061;28;19924;-81
2022/04/28 08:06:01;;;;;;;;;;;11.70;99.90;;;;;;5033735;28;19925;-87
2022/04/28 08:08:28;;;;;;;;;;;11.70;99.90;;;;;;5033378;28;20313;-81
2022/04/28 08:10:54;;;;;;;;;;;11.70;99.90;;;;;;5037233;28;19939;-82
2022/04/28 08:13:21;;;;;;;;;;;11.70;99.90;;;;;;5023392;28;20359;-82
2022/04/28 08:15:48;;;;;;;;;;;11.70;99.90;;;;;;5020329;28;19932;-82
2022/04/28 08:18:14;;;;;;;;;;;11.60;99.90;;;;;;5025102;28;19929;-87
2022/04/28 08:20:41;;;;;;;;;;;11.60;99.90;;;;;;5025544;28;19935;-82
2022/04/28 08:23:07;;;;;;;;;;;11.50;99.90;;;;;;5039140;28;19928;-82
2022/04/28 08:25:34;;;;;;;;;;;11.40;99.90;;;;;;5044166;28;19933;-82
2022/04/28 08:28:00;;;;;;;;;;;11.60;99.90;;;;;;5020906;28;19933;-84
2022/04/28 08:30:27;;;;;;;;;;;11.60;99.90;;;;;;5042525;28;19935;-82
2022/04/28 08:32:53;;;;;;;;;;;11.50;99.90;;;;;;5046843;28;19940;-82
2022/04/28 08:35:20;;;;;;;;;;;11.50;99.90;;;;;;5024047;28;20368;-81
2022/04/28 08:37:46;;;;;;;;;;;11.30;99.90;;;;;;5031622;28;19932;-82
2022/04/28 08:40:13;;;;;;;;;;;11.40;99.90;;;;;;5045958;28;19943;-82
2022/04/28 08:42:40;;;;;;;;;;;11.30;99.90;;;;;;5048996;28;19932;-82
2022/04/28 08:45:06;;;;;;;;;;;11.50;99.90;;;;;;5032405;28;19924;-82
2022/04/28 08:47:33;;;;;;;;;;;11.70;99.90;;;;;;5024180;28;19925;-81
2022/04/28 08:49:59;;;;;;;;;;;11.70;99.90;;;;;;5043192;28;19928;-83
2022/04/28 08:52:26;;;;;;;;;;;11.90;99.90;;;;;;5044436;28;19931;-82
2022/04/28 08:54:52;;;;;;;;;;;11.80;99.90;;;;;;5034488;28;19932;-81
2022/04/28 08:57:19;;;;;;;;;;;11.80;99.90;;;;;;5036684;28;19925;-82
2022/04/28 08:59:46;;;;;;;;;;;11.70;99.90;;;;;;5040665;28;19931;-83
2022/04/28 09:02:13;;;;;;;;;;;11.70;99.90;;;;;;5055901;28;19928;-82
2022/04/28 09:04:40;;;;;;;;;;;11.70;99.90;;;;;;5044401;28;19971;-89
2022/04/28 09:07:06;;;;;;;;;;;11.80;99.90;;;;;;5048672;28;19964;-85
2022/04/28 09:09:33;;;;;;;;;;;11.70;99.90;;;;;;5030133;28;19940;-82
2022/04/28 09:11:59;;;;;;;;;;;11.70;99.90;;;;;;5049938;28;19929;-81
2022/04/28 09:14:26;;;;;;;;;;;11.90;99.90;;;;;;5038640;28;19925;-84
2022/04/28 09:16:52;;;;;;;;;;;11.90;99.90;;;;;;5051053;28;20280;-82
2022/04/28 09:19:22;;;;;;;;;;;11.90;99.90;;;;;;5023986;28;19929;-82
2022/04/28 09:21:50;;;;;;;;;;;11.80;99.90;;;;;;5030234;28;19996;-82
2022/04/28 09:24:16;;;;;;;;;;;11.90;99.90;;;;;;5028214;28;19924;-81
2022/04/28 09:26:43;;;;;;;;;;;11.90;99.90;;;;;;5022183;28;19929;-84
2022/04/28 09:29:09;;;;;;;;;;;11.90;99.90;;;;;;5032502;28;19924;-83
2022/04/28 09:31:36;;;;;;;;;;;11.90;99.90;;;;;;5042743;28;20280;-81
2022/04/28 09:34:03;;;;;;;;;;;11.90;99.90;;;;;;5057073;28;19935;-81
2022/04/28 09:36:29;;;;;;;;;;;11.90;99.90;;;;;;5049038;28;19992;-81
2022/04/28 09:38:56;;;;;;;;;;;11.80;99.90;;;;;;5041443;28;19925;-81
2022/04/28 09:44:08;;;;;;;;;;;12.20;99.90;;;;;;5032635;28;19931;-87
2022/04/28 09:46:35;;;;;;;;;;;12.40;99.90;;;;;;5036067;28;19929;-82
2022/04/28 09:49:01;;;;;;;;;;;12.30;99.90;;;;;;5041966;28;20394;-81
2022/04/28 09:51:28;;;;;;;;;;;12.40;99.90;;;;;;5032958;28;19928;-81
2022/04/28 09:53:54;;;;;;;;;;;12.30;99.90;;;;;;5027913;28;19932;-81
2022/04/28 09:56:21;;;;;;;;;;;12.10;99.90;;;;;;5028798;28;19932;-81
2022/04/28 09:58:48;;;;;;;;;;;12.40;99.90;;;;;;5046809;28;19924;-80
2022/04/28 10:01:15;;;;;;;;;;;12.50;99.90;;;;;;5025520;28;19949;-81
2022/04/28 10:03:42;;;;;;;;;;;12.70;99.30;;;;;;5040429;28;20374;-81
2022/04/28 10:06:08;;;;;;;;;;;12.60;99.70;;;;;;5030528;28;19928;-87
2022/04/28 10:08:35;;;;;;;;;;;12.50;99.60;;;;;;5035380;28;20406;-82
2022/04/28 10:11:03;;;;;;;;;;;12.50;99.90;;;;;;5032475;28;19932;-82
2022/04/28 10:13:30;;;;;;;;;;;12.50;99.90;;;;;;5030774;28;19970;-82
2022/04/28 10:15:56;;;;;;;;;;;12.40;99.90;;;;;;5039156;28;20369;-81
2022/04/28 10:18:23;;;;;;;;;;;12.30;99.90;;;;;;5062679;28;19932;-81
2022/04/28 10:20:51;;;;;;;;;;;12.30;99.90;;;;;;5031100;28;20340;-81
2022/04/28 10:23:17;;;;;;;;;;;12.40;99.90;;;;;;5036121;28;20342;-81
2022/04/28 10:33:57;;;;;;;;;;;12.20;99.90;;;;;;5035812;28;19925;-81
2022/04/28 10:36:25;;;;;;;;;;;12.20;99.90;;;;;;5032551;28;19925;-80
2022/04/28 10:38:51;;;;;;;;;;;12.20;99.90;;;;;;5034685;28;19924;-82
2022/04/28 10:41:19;;;;;;;;;;;12.30;99.90;;;;;;5031867;28;19931;-81
2022/04/28 10:43:46;;;;;;;;;;;12.10;99.90;;;;;;5021732;28;19933;-82
2022/04/28 10:46:13;;;;;;;;;;;12.20;99.90;;;;;;5031455;28;19929;-86
2022/04/28 10:48:41;;;;;;;;;;;12.30;99.90;;;;;;5021535;28;19933;-81
2022/04/28 10:51:10;;;;;;;;;;;12.40;99.90;;;;;;5018539;28;19932;-80
2022/04/28 10:53:36;;;;;;;;;;;12.40;99.90;;;;;;5031394;28;20383;-81
2022/04/28 10:56:03;;;;;;;;;;;12.40;99.90;;;;;;5037609;28;20287;-81
2022/04/28 10:58:30;;;;;;;;;;;12.40;99.90;;;;;;5041604;28;20283;-81
2022/04/28 11:00:56;;;;;;;;;;;12.40;99.90;;;;;;5047456;28;20363;-82
2022/04/28 11:03:23;;;;;;;;;;;12.40;99.90;;;;;;5031613;28;19980;-82
2022/04/28 11:05:49;;;;;;;;;;;12.30;99.90;;;;;;5046275;28;19928;-81
2022/04/28 11:08:16;;;;;;;;;;;12.40;99.90;;;;;;5035517;28;19924;-86
2022/04/28 11:10:42;;;;;;;;;;;12.40;99.90;;;;;;5049875;28;19925;-81
2022/04/28 11:13:09;;;;;;;;;;;12.40;99.90;;;;;;5045551;28;19929;-81
2022/04/28 11:15:35;;;;;;;;;;;12.40;99.90;;;;;;5043016;28;20450;-81
2022/04/28 11:18:02;;;;;;;;;;;12.40;99.90;;;;;;5030487;28;20257;-82
2022/04/28 11:20:29;;;;;;;;;;;12.30;99.90;;;;;;5033376;28;20399;-81
2022/04/28 11:22:56;;;;;;;;;;;12.40;99.90;;;;;;5049644;28;20372;-81
2022/04/28 11:25:22;;;;;;;;;;;12.40;99.90;;;;;;5034765;28;19937;-81
2022/04/28 11:27:51;;;;;;;;;;;12.40;99.90;;;;;;5049093;28;19932;-81
2022/04/28 11:30:17;;;;;;;;;;;12.40;99.90;;;;;;5047511;28;19925;-89
2022/04/28 11:32:44;;;;;;;;;;;12.50;99.90;;;;;;5047910;28;19931;-80
2022/04/28 11:35:10;;;;;;;;;;;12.60;99.90;;;;;;5042585;28;19935;-81
2022/04/28 11:37:37;;;;;;;;;;;12.50;99.90;;;;;;5047754;28;19920;-81
2022/04/28 11:40:04;;;;;;;;;;;12.50;99.90;;;;;;5040427;28;19925;-81
2022/04/28 11:42:31;;;;;;;;;;;12.60;99.90;;;;;;5033988;28;19929;-81
2022/04/28 11:44:59;;;;;;;;;;;12.60;99.90;;;;;;5038868;28;19924;-80
2022/04/28 11:47:26;;;;;;;;;;;12.60;99.90;;;;;;5051863;28;19932;-81
2022/04/28 11:49:52;;;;;;;;;;;12.70;99.90;;;;;;5048085;28;19925;-81
2022/04/28 11:52:19;;;;;;;;;;;12.60;99.90;;;;;;5036341;28;19932;-86
2022/04/28 11:54:45;;;;;;;;;;;12.50;99.90;;;;;;5051799;28;19962;-81
2022/04/28 11:57:12;;;;;;;;;;;12.60;99.90;;;;;;5043065;28;19925;-85
2022/04/28 11:59:39;;;;;;;;;;;12.70;99.90;;;;;;5032356;28;20358;-81
2022/04/28 12:02:05;;;;;;;;;;;12.60;99.90;;;;;;5043970;28;20395;-81
2022/04/28 12:04:32;;;;;;;;;;;12.50;99.90;;;;;;5034531;28;20465;-81
2022/04/28 12:06:58;;;;;;;;;;;12.40;99.90;;;;;;5052223;28;19925;-81
2022/04/28 12:14:55;;;;;;;;;;;12.50;99.90;;;;;;5035031;28;20003;-80
2022/04/28 12:20:10;;;;;;;;;;;12.60;99.90;;;;;;5028669;28;20062;-80
2022/04/28 12:22:37;;;;;;;;;;;12.70;99.90;;;;;;5033653;28;20374;-81
2022/04/28 12:25:04;;;;;;;;;;;12.50;99.90;;;;;;5028727;28;19932;-79
2022/04/28 12:27:31;;;;;;;;;;;12.80;99.90;;;;;;5045392;28;19933;-80
2022/04/28 12:29:58;;;;;;;;;;;13.00;99.90;;;;;;5038981;28;19999;-78
2022/04/28 12:32:25;;;;;;;;;;;13.20;99.90;;;;;;5030511;28;20499;-77
2022/04/28 12:34:52;;;;;;;;;;;13.20;99.70;;;;;;5039687;28;19971;-79
2022/04/28 12:37:19;;;;;;;;;;;13.20;99.90;;;;;;5059973;28;19925;-80
2022/04/28 12:39:45;;;;;;;;;;;13.10;99.30;;;;;;5038823;28;19925;-83
2022/04/28 12:42:12;;;;;;;;;;;12.90;99.90;;;;;;5037098;28;19932;-80
2022/04/28 12:44:40;;;;;;;;;;;13.00;99.90;;;;;;5051741;28;19932;-80
2022/04/28 12:47:06;;;;;;;;;;;13.30;99.90;;;;;;5065088;28;19979;-79
2022/04/28 12:49:33;;;;;;;;;;;13.40;99.80;;;;;;5041066;28;19925;-80
2022/04/28 12:52:00;;;;;;;;;;;13.40;99.20;;;;;;5047260;28;19964;-87
2022/04/28 12:54:26;;;;;;;;;;;13.40;99.80;;;;;;5050719;28;19925;-81
2022/04/28 12:56:53;;;;;;;;;;;13.50;99.50;;;;;;5038381;28;19932;-80
2022/04/28 12:59:21;;;;;;;;;;;13.50;99.30;;;;;;5030678;28;19967;-83
2022/04/28 13:01:48;;;;;;;;;;;13.50;98.30;;;;;;5037076;28;19925;-81
2022/04/28 13:04:14;;;;;;;;;;;13.30;98.60;;;;;;5037278;28;19924;-79
2022/04/28 13:06:42;;;;;;;;;;;13.40;99.80;;;;;;5053810;28;19928;-80
2022/04/28 13:09:09;;;;;;;;;;;13.30;98.90;;;;;;5051785;28;19929;-80
2022/04/28 13:11:36;;;;;;;;;;;13.40;99.90;;;;;;5042584;28;19925;-81
2022/04/28 13:14:02;;;;;;;;;;;13.40;99.90;;;;;;5047415;28;19925;-80
2022/04/28 13:16:29;;;;;;;;;;;13.40;98.60;;;;;;5041116;28;20348;-82
2022/04/28 13:18:56;;;;;;;;;;;13.40;98.50;;;;;;5027815;28;19925;-81
2022/04/28 13:21:23;;;;;;;;;;;13.30;99.60;;;;;;5036669;28;19925;-82
2022/04/28 13:23:49;;;;;;;;;;;13.30;99.70;;;;;;5057439;28;20015;-81
2022/04/28 13:26:16;;;;;;;;;;;13.30;99.10;;;;;;5041617;28;19932;-81
2022/04/28 13:28:42;;;;;;;;;;;13.30;99.40;;;;;;5041314;28;19929;-81
2022/04/28 13:31:09;;;;;;;;;;;13.10;99.30;;;;;;5030019;28;19929;-80
2022/04/28 13:33:37;;;;;;;;;;;13.30;98.90;;;;;;5035341;28;19992;-79
2022/04/28 13:36:04;;;;;;;;;;;13.30;99.40;;;;;;5029061;28;19974;-84
2022/04/28 13:38:30;;;;;;;;;;;13.20;99.00;;;;;;5028858;28;19925;-79
2022/04/28 13:40:57;;;;;;;;;;;13.20;99.40;;;;;;5041699;28;20273;-75
2022/04/28 13:43:23;;;;;;;;;;;13.20;99.20;;;;;;5053905;28;19931;-83
2022/04/28 13:45:50;;;;;;;;;;;13.30;98.90;;;;;;5049785;28;19929;-80
2022/04/28 13:48:17;;;;;;;;;;;13.30;99.10;;;;;;5035299;28;19947;-86
2022/04/28 13:50:44;;;;;;;;;;;13.30;99.00;;;;;;5022566;28;19929;-81
2022/04/28 13:53:10;;;;;;;;;;;13.20;98.80;;;;;;5034893;28;19926;-83
2022/04/28 13:55:38;;;;;;;;;;;13.10;99.10;;;;;;5045322;28;19924;-82
2022/04/28 13:58:04;;;;;;;;;;;13.20;99.40;;;;;;5036239;28;19928;-84
2022/04/28 14:00:31;;;;;;;;;;;13.30;98.70;;;;;;5036117;28;19924;-78
2022/04/28 14:02:57;;;;;;;;;;;13.20;99.00;;;;;;5024819;28;20338;-81
2022/04/28 14:05:26;;;;;;;;;;;13.20;99.90;;;;;;5054347;28;20376;-81
2022/04/28 14:07:53;;;;;;;;;;;13.20;99.20;;;;;;5037495;28;19929;-81
2022/04/28 14:10:19;;;;;;;;;;;13.30;99.20;;;;;;5039091;28;19925;-81
2022/04/28 14:12:46;;;;;;;;;;;13.30;99.10;;;;;;5051762;28;19925;-81
2022/04/28 14:15:15;;;;;;;;;;;13.30;99.10;;;;;;5039127;28;20375;-80
2022/04/28 14:17:41;;;;;;;;;;;13.20;99.10;;;;;;5034987;28;19967;-81
2022/04/28 14:20:09;;;;;;;;;;;13.30;99.40;;;;;;5035485;28;19968;-82
2022/04/28 14:22:35;;;;;;;;;;;13.30;98.70;;;;;;5037091;28;19932;-85
2022/04/28 14:25:02;;;;;;;;;;;13.30;99.60;;;;;;5030884;28;19936;-80
2022/04/28 14:27:28;;;;;;;;;;;13.40;99.70;;;;;;5040815;28;19924;-82
2022/04/28 14:29:55;;;;;;;;;;;13.40;99.10;;;;;;5057725;28;20429;-80
2022/04/28 14:32:22;;;;;;;;;;;13.40;99.00;;;;;;5039178;28;20375;-81
2022/04/28 14:34:48;;;;;;;;;;;13.40;99.20;;;;;;5042379;28;19975;-81
2022/04/28 14:37:15;;;;;;;;;;;13.40;98.60;;;;;;5041207;28;19924;-81
2022/04/28 14:39:41;;;;;;;;;;;13.40;98.70;;;;;;5034419;28;20269;-82
2022/04/28 14:42:09;;;;;;;;;;;13.40;99.10;;;;;;5053368;28;20023;-80
2022/04/28 14:44:36;;;;;;;;;;;13.40;99.20;;;;;;5048332;28;20039;-82
2022/04/28 14:47:02;;;;;;;;;;;13.40;99.60;;;;;;5038369;28;19935;-83
2022/04/28 14:52:24;;;;;;;;;;;13.40;98.90;;;;;;5026176;28;19932;-83
2022/04/28 14:54:53;;;;;;;;;;;13.50;98.70;;;;;;5032777;28;20031;-82
2022/04/28 14:57:19;;;;;;;;;;;13.40;99.40;;;;;;5033517;28;19932;-81